createdAt,value
2022-10-25T00:02:26.396Z,1.10
2022-10-25T00:04:53.265Z,0.70
2022-10-25T00:07:20.070Z,1.08
2022-10-25T00:09:49.592Z,1.00
2022-10-25T00:12:16.360Z,0.90
2022-10-25T00:14:44.432Z,0.93
2022-10-25T00:17:14.031Z,1.00
2022-10-25T00:19:40.782Z,1.20
2022-10-25T00:22:08.635Z,1.07
2022-10-25T00:24:35.396Z,1.10
2022-10-25T00:27:02.190Z,0.80
2022-10-25T00:29:33.231Z,1.03
2022-10-25T00:31:59.990Z,0.80
2022-10-25T00:34:27.196Z,4.32
2022-10-25T00:36:53.885Z,1.60
2022-10-25T00:39:20.690Z,0.95
2022-10-25T00:41:49.524Z,1.00
2022-10-25T00:44:41.128Z,1.00
2022-10-25T00:47:19.915Z,0.80
2022-10-25T00:50:16.752Z,0.82
2022-10-25T00:52:47.174Z,0.80
2022-10-25T00:55:17.795Z,1.08
2022-10-25T00:58:11.228Z,1.00
2022-10-25T01:00:40.563Z,0.80
2022-10-25T01:03:07.527Z,0.77
2022-10-25T01:05:35.314Z,0.98
2022-10-25T01:08:02.312Z,0.80
2022-10-25T01:10:31.192Z,0.93
2022-10-25T01:12:59.961Z,1.00
2022-10-25T01:15:53.881Z,0.90
2022-10-25T01:18:35.251Z,1.10
2022-10-25T01:21:39.470Z,1.30
2022-10-25T01:24:32.651Z,1.17
2022-10-25T01:27:11.390Z,1.17
2022-10-25T01:29:50.078Z,1.23
2022-10-25T01:32:25.517Z,1.27
2022-10-25T01:35:02.313Z,1.50
2022-10-25T01:37:46.271Z,1.20
2022-10-25T01:40:42.870Z,1.30
2022-10-25T01:43:25.218Z,1.40
2022-10-25T01:46:21.452Z,1.40
2022-10-25T01:48:59.615Z,2.45
2022-10-25T01:51:28.703Z,1.30
2022-10-25T01:53:55.396Z,1.35
2022-10-25T01:56:31.087Z,1.77
2022-10-25T01:59:00.711Z,1.73
2022-10-25T02:01:36.190Z,1.63
2022-10-25T02:04:18.337Z,1.65
2022-10-25T02:07:02.186Z,1.58
2022-10-25T02:12:52.843Z,1.77
2022-10-25T02:15:27.379Z,1.65
2022-10-25T02:18:02.244Z,1.60
2022-10-25T02:20:32.516Z,1.58
2022-10-25T02:23:05.403Z,1.65
2022-10-25T02:25:34.720Z,1.77
2022-10-25T02:28:05.966Z,1.60
2022-10-25T02:30:35.114Z,1.90
2022-10-25T02:33:02.937Z,1.45
2022-10-25T02:35:29.731Z,1.63
2022-10-25T02:37:56.475Z,1.50
2022-10-25T02:40:23.565Z,1.30
2022-10-25T02:42:50.276Z,1.27
2022-10-25T02:45:17.198Z,1.33
2022-10-25T02:47:44.094Z,1.23
2022-10-25T02:50:11.488Z,1.40
2022-10-25T02:52:39.361Z,1.42
2022-10-25T02:55:06.685Z,1.33
2022-10-25T02:57:37.640Z,1.42
2022-10-25T03:00:06.171Z,1.27
2022-10-25T03:02:32.984Z,1.15
2022-10-25T03:04:59.720Z,1.40
2022-10-25T03:07:26.506Z,1.37
2022-10-25T03:09:54.443Z,1.13
2022-10-25T03:12:21.272Z,1.38
2022-10-25T03:14:47.908Z,1.30
2022-10-25T03:17:14.667Z,1.27
2022-10-25T03:19:43.520Z,1.20
2022-10-25T03:22:11.626Z,1.23
2022-10-25T03:24:38.290Z,1.42
2022-10-25T03:27:05.120Z,2.92
2022-10-25T03:29:31.887Z,3.78
2022-10-25T03:31:58.555Z,2.83
2022-10-25T03:34:25.367Z,3.10
2022-10-25T03:36:52.561Z,2.42
2022-10-25T03:39:19.298Z,2.78
2022-10-25T03:41:46.009Z,3.10
2022-10-25T03:44:12.720Z,3.42
2022-10-25T03:46:39.409Z,4.40
2022-10-25T03:49:06.213Z,4.70
2022-10-25T03:51:32.966Z,5.20
2022-10-25T03:53:59.817Z,5.23
2022-10-25T03:56:26.578Z,9.93
2022-10-25T03:58:55.496Z,6.30
2022-10-25T04:01:22.370Z,8.85
2022-10-25T04:03:49.352Z,4.50
2022-10-25T04:06:16.021Z,3.97
2022-10-25T04:08:42.775Z,4.60
2022-10-25T04:11:09.614Z,3.80
2022-10-25T04:13:36.370Z,4.05
2022-10-25T04:16:08.066Z,4.13
2022-10-25T04:18:37.464Z,3.92
2022-10-25T04:21:05.719Z,3.67
2022-10-25T04:23:32.517Z,3.75
2022-10-25T04:26:07.019Z,3.83
2022-10-25T04:28:33.687Z,3.47
2022-10-25T04:31:00.402Z,3.20
2022-10-25T04:33:27.056Z,3.50
2022-10-25T04:35:56.856Z,3.13
2022-10-25T04:38:31.888Z,3.35
2022-10-25T04:41:00.671Z,3.30
2022-10-25T04:43:36.245Z,3.45
2022-10-25T04:46:04.246Z,3.83
2022-10-25T04:51:07.583Z,3.65
2022-10-25T04:53:34.390Z,3.45
2022-10-25T04:56:03.765Z,3.50
2022-10-25T04:58:31.573Z,3.80
2022-10-25T05:01:01.538Z,3.63
2022-10-25T05:03:34.733Z,3.10
2022-10-25T05:06:08.514Z,3.50
2022-10-25T05:08:40.626Z,2.97
2022-10-25T05:11:08.494Z,3.03
2022-10-25T05:13:36.571Z,3.25
2022-10-25T05:16:04.042Z,2.90
2022-10-25T05:18:31.991Z,3.10
2022-10-25T05:21:04.819Z,3.28
2022-10-25T05:23:33.243Z,2.90
2022-10-25T05:26:20.642Z,3.00
2022-10-25T05:28:51.051Z,2.60
2022-10-25T05:31:21.225Z,2.70
2022-10-25T05:34:06.412Z,2.78
2022-10-25T05:36:34.514Z,2.75
2022-10-25T05:39:01.677Z,2.80
2022-10-25T05:41:30.693Z,3.03
2022-10-25T05:44:00.104Z,2.70
2022-10-25T05:46:26.964Z,2.72
2022-10-25T05:48:53.800Z,2.63
2022-10-25T05:51:36.646Z,3.10
2022-10-25T05:54:10.264Z,3.20
2022-10-25T05:56:37.650Z,3.60
2022-10-25T05:59:09.570Z,3.22
2022-10-25T06:01:41.954Z,3.47
2022-10-25T06:04:09.957Z,3.63
2022-10-25T06:06:39.914Z,3.65
2022-10-25T06:09:07.803Z,3.53
2022-10-25T06:11:34.698Z,3.92
2022-10-25T06:14:01.612Z,3.97
2022-10-25T06:16:28.698Z,3.95
2022-10-25T06:18:55.536Z,3.60
2022-10-25T06:21:24.775Z,3.30
2022-10-25T06:23:52.632Z,3.72
2022-10-25T06:26:28.022Z,4.13
2022-10-25T06:28:57.680Z,3.83
2022-10-25T06:31:25.089Z,4.10
2022-10-25T06:33:52.707Z,3.85
2022-10-25T06:38:48.548Z,4.00
2022-10-25T06:41:27.819Z,3.67
2022-10-25T06:43:55.331Z,3.25
2022-10-25T06:46:33.942Z,3.38
2022-10-25T06:49:02.436Z,2.88
2022-10-25T06:51:29.664Z,2.40
2022-10-25T06:53:57.917Z,2.33
2022-10-25T06:56:26.362Z,2.10
2022-10-25T06:58:54.556Z,2.70
2022-10-25T07:01:23.211Z,3.08
2022-10-25T07:03:50.932Z,2.70
2022-10-25T07:06:26.813Z,2.35
2022-10-25T07:08:56.291Z,2.45
2022-10-25T07:11:24.703Z,2.90
2022-10-25T07:13:51.592Z,2.45
2022-10-25T07:16:20.028Z,3.00
2022-10-25T07:18:46.960Z,3.05
2022-10-25T07:21:20.248Z,2.40
2022-10-25T07:23:50.115Z,2.30
2022-10-25T07:26:19.991Z,2.35
2022-10-25T07:28:47.956Z,2.08
2022-10-25T07:31:18.441Z,1.90
2022-10-25T07:33:45.172Z,1.85
2022-10-25T07:36:12.347Z,2.37
2022-10-25T07:38:40.574Z,1.70
2022-10-25T07:41:08.113Z,1.92
2022-10-25T07:43:34.980Z,1.73
2022-10-25T07:46:01.944Z,2.72
2022-10-25T07:48:28.975Z,1.90
2022-10-25T07:50:55.724Z,1.75
2022-10-25T07:53:23.576Z,1.80
2022-10-25T07:55:52.152Z,1.90
2022-10-25T07:58:19.196Z,2.10
2022-10-25T08:00:46.326Z,2.08
2022-10-25T08:03:14.717Z,2.03
2022-10-25T08:05:46.601Z,1.60
2022-10-25T08:08:14.319Z,1.70
2022-10-25T08:10:44.766Z,1.17
2022-10-25T08:13:11.878Z,1.20
2022-10-25T08:15:41.965Z,1.00
2022-10-25T08:18:09.800Z,1.15
2022-10-25T08:21:00.592Z,0.93
2022-10-25T08:23:25.315Z,1.13
2022-10-25T08:25:52.711Z,0.90
2022-10-25T08:28:20.030Z,0.98
2022-10-25T08:30:46.723Z,1.00
2022-10-25T08:33:13.661Z,1.13
2022-10-25T08:35:40.434Z,0.85
2022-10-25T08:38:07.103Z,0.70
2022-10-25T08:41:01.903Z,1.00
2022-10-25T08:43:42.795Z,0.70
2022-10-25T08:46:16.278Z,1.00
2022-10-25T08:48:47.866Z,0.90
2022-10-25T08:51:29.800Z,0.98
2022-10-25T08:54:01.478Z,0.63
2022-10-25T08:56:30.211Z,1.02
2022-10-25T08:59:00.739Z,1.02
2022-10-25T09:01:35.795Z,0.80
2022-10-25T09:04:02.713Z,1.00
2022-10-25T09:06:38.888Z,0.80
2022-10-25T09:09:40.959Z,0.93
2022-10-25T09:12:19.194Z,0.80
2022-10-25T09:17:49.180Z,1.00
2022-10-25T09:20:25.845Z,0.70
2022-10-25T09:23:10.932Z,0.70
2022-10-25T09:25:52.952Z,0.90
2022-10-25T09:28:27.232Z,0.80
2022-10-25T09:30:57.525Z,0.82
2022-10-25T09:33:30.404Z,0.70
2022-10-25T09:36:03.822Z,0.60
2022-10-25T09:38:42.464Z,0.93
2022-10-25T09:41:26.348Z,0.50
2022-10-25T09:44:47.451Z,0.90
2022-10-25T09:47:19.126Z,0.70
2022-10-25T09:50:12.070Z,0.70
2022-10-25T09:52:50.759Z,1.58
2022-10-25T09:55:50.881Z,0.70
2022-10-25T09:58:37.878Z,1.02
2022-10-25T10:01:15.865Z,1.05
2022-10-25T10:06:23.973Z,1.20
2022-10-25T10:08:57.263Z,0.80
2022-10-25T10:11:24.555Z,0.98
2022-10-25T10:13:53.026Z,0.90
2022-10-25T10:16:24.020Z,0.90
2022-10-25T10:18:52.878Z,0.98
2022-10-25T10:21:22.210Z,1.05
2022-10-25T10:24:05.340Z,1.35
2022-10-25T10:26:36.208Z,1.25
2022-10-25T10:29:21.453Z,1.40
2022-10-25T10:31:55.226Z,1.30
2022-10-25T10:34:21.869Z,1.40
2022-10-25T10:37:06.909Z,1.30
2022-10-25T10:39:34.199Z,1.40
2022-10-25T10:42:18.780Z,1.83
2022-10-25T10:45:13.214Z,1.23
2022-10-25T10:47:51.856Z,1.02
2022-10-25T10:50:28.626Z,0.85
2022-10-25T10:53:00.511Z,1.02
2022-10-25T10:55:30.501Z,0.98
2022-10-25T10:58:07.097Z,1.13
2022-10-25T11:00:35.222Z,1.10
2022-10-25T11:03:02.518Z,0.95
2022-10-25T11:05:32.095Z,0.88
2022-10-25T11:08:02.790Z,0.70
2022-10-25T11:10:36.686Z,0.70
2022-10-25T11:13:20.551Z,0.73
2022-10-25T11:16:31.302Z,0.63
2022-10-25T11:19:16.834Z,0.85
2022-10-25T11:22:04.696Z,0.77
2022-10-25T11:24:53.045Z,0.70
2022-10-25T11:27:31.813Z,0.60
2022-10-25T11:30:23.400Z,0.65
2022-10-25T11:33:19.347Z,0.70
2022-10-25T11:36:05.995Z,0.90
2022-10-25T11:38:46.567Z,0.80
2022-10-25T11:41:28.040Z,0.80
2022-10-25T11:46:49.372Z,0.57
2022-10-25T11:52:15.961Z,0.50
2022-10-25T11:55:25.491Z,0.50
2022-10-25T11:58:10.461Z,0.50
2022-10-25T12:01:04.333Z,0.50
2022-10-25T12:03:38.159Z,0.57
2022-10-25T12:06:24.701Z,1.75
2022-10-25T12:09:09.721Z,0.45
2022-10-25T12:12:15.388Z,0.60
2022-10-25T12:14:47.154Z,0.57
2022-10-25T12:19:52.187Z,1.30
2022-10-25T12:22:33.917Z,0.80
2022-10-25T12:25:05.249Z,0.60
2022-10-25T12:27:34.772Z,0.95
2022-10-25T12:30:07.580Z,0.40
2022-10-25T12:32:40.399Z,0.40
2022-10-25T12:35:23.104Z,1.23
2022-10-25T12:38:06.866Z,0.80
2022-10-25T12:40:41.630Z,0.35
2022-10-25T12:43:32.989Z,0.77
2022-10-25T12:46:17.138Z,0.60
2022-10-25T12:48:56.805Z,0.60
2022-10-25T12:51:42.061Z,0.65
2022-10-25T12:54:46.644Z,0.55
2022-10-25T12:57:51.408Z,0.50
2022-10-25T13:00:22.796Z,0.50
2022-10-25T13:03:22.626Z,0.60
2022-10-25T13:06:02.862Z,0.60
2022-10-25T13:08:31.465Z,0.50
2022-10-25T13:11:07.003Z,0.40
2022-10-25T13:13:42.469Z,0.50
2022-10-25T13:16:11.009Z,0.60
2022-10-25T13:18:45.606Z,0.50
2022-10-25T13:21:54.057Z,0.50
2022-10-25T13:24:40.569Z,0.50
2022-10-25T13:27:13.773Z,0.40
2022-10-25T13:30:06.557Z,0.70
2022-10-25T13:32:34.962Z,0.50
2022-10-25T13:35:03.814Z,0.52
2022-10-25T13:37:34.110Z,0.55
2022-10-25T13:40:08.199Z,0.63
2022-10-25T13:42:38.521Z,0.50
2022-10-25T13:45:06.973Z,0.30
2022-10-25T13:47:39.776Z,0.73
2022-10-25T13:50:28.337Z,0.50
2022-10-25T13:53:01.562Z,0.40
2022-10-25T13:55:36.504Z,0.40
2022-10-25T13:58:23.213Z,1.30
2022-10-25T14:00:53.022Z,1.23
2022-10-25T14:03:43.915Z,0.40
2022-10-25T14:06:17.528Z,0.30
2022-10-25T14:09:18.839Z,0.50
2022-10-25T14:12:00.621Z,0.55
2022-10-25T14:14:42.359Z,0.50
2022-10-25T14:17:15.527Z,0.50
2022-10-25T14:19:55.345Z,0.30
2022-10-25T14:22:31.948Z,0.30
2022-10-25T14:25:03.647Z,0.60
2022-10-25T14:27:33.664Z,0.55
2022-10-25T14:30:24.260Z,0.55
2022-10-25T14:33:05.810Z,0.47
2022-10-25T14:35:46.199Z,0.52
2022-10-25T14:38:20.660Z,0.45
2022-10-25T14:41:01.995Z,0.55
2022-10-25T14:43:37.281Z,0.60
2022-10-25T14:46:10.289Z,0.50
2022-10-25T14:48:38.267Z,0.63
2022-10-25T14:51:12.581Z,0.80
2022-10-25T14:53:51.652Z,1.08
2022-10-25T14:56:32.118Z,0.65
2022-10-25T14:59:00.904Z,1.05
2022-10-25T15:01:28.226Z,1.00
2022-10-25T15:03:59.349Z,1.17
2022-10-25T15:06:29.442Z,1.40
2022-10-25T15:09:36.956Z,1.20
2022-10-25T15:12:06.501Z,0.98
2022-10-25T15:14:36.464Z,1.20
2022-10-25T15:17:25.867Z,1.10
2022-10-25T15:20:21.669Z,1.00
2022-10-25T15:22:50.990Z,0.80
2022-10-25T15:25:30.338Z,0.68
2022-10-25T15:27:59.259Z,0.65
2022-10-25T15:30:45.052Z,0.68
2022-10-25T15:33:33.507Z,0.65
2022-10-25T15:36:04.323Z,1.10
2022-10-25T15:39:01.814Z,1.02
2022-10-25T15:41:24.691Z,0.70
2022-10-25T15:43:52.906Z,0.80
2022-10-25T15:46:33.899Z,1.08
2022-10-25T15:49:04.442Z,1.00
2022-10-25T15:51:34.351Z,1.50
2022-10-25T15:54:01.137Z,1.08
2022-10-25T15:56:27.984Z,1.95
2022-10-25T15:58:55.076Z,1.70
2022-10-25T16:01:23.002Z,1.73
2022-10-25T16:03:49.837Z,1.42
2022-10-25T16:06:17.058Z,1.47
2022-10-25T16:08:43.855Z,1.80
2022-10-25T16:11:19.024Z,1.58
2022-10-25T16:13:48.511Z,1.48
2022-10-25T16:16:40.433Z,1.90
2022-10-25T16:19:18.179Z,1.60
2022-10-25T16:21:45.338Z,2.35
2022-10-25T16:24:12.750Z,2.58
2022-10-25T16:26:46.198Z,3.17
2022-10-25T16:29:16.083Z,2.10
2022-10-25T16:31:44.659Z,1.85
2022-10-25T16:34:15.612Z,1.70
2022-10-25T16:36:42.925Z,1.52
2022-10-25T16:39:11.366Z,1.67
2022-10-25T16:41:43.171Z,1.80
2022-10-25T16:44:12.241Z,1.63
2022-10-25T16:46:39.759Z,2.10
2022-10-25T16:49:06.753Z,1.75
2022-10-25T16:51:36.652Z,2.55
2022-10-25T16:54:03.886Z,1.33
2022-10-25T16:56:31.083Z,2.78
2022-10-25T16:58:57.898Z,1.17
2022-10-25T17:01:35.645Z,1.35
2022-10-25T17:04:04.909Z,1.10
2022-10-25T17:06:47.217Z,1.48
2022-10-25T17:09:14.061Z,1.52
2022-10-25T17:11:42.865Z,1.67
2022-10-25T17:14:10.882Z,2.17
2022-10-25T17:16:42.668Z,2.70
2022-10-25T17:19:13.552Z,2.13
2022-10-25T17:21:40.451Z,3.10
2022-10-25T17:24:09.695Z,2.95
2022-10-25T17:26:39.758Z,3.42
2022-10-25T17:29:06.660Z,5.10
2022-10-25T17:31:33.552Z,5.07
2022-10-25T17:34:01.338Z,5.45
2022-10-25T17:36:31.640Z,6.35
2022-10-25T17:38:59.545Z,7.65
2022-10-25T17:41:26.444Z,8.90
2022-10-25T17:43:56.073Z,7.70
2022-10-25T17:46:26.530Z,10.15
2022-10-25T17:48:55.696Z,10.05
2022-10-25T17:51:23.842Z,9.23
2022-10-25T17:53:55.100Z,8.18
2022-10-25T17:56:27.039Z,8.07
2022-10-25T17:58:55.498Z,6.90
2022-10-25T18:01:28.018Z,6.95
2022-10-25T18:03:55.576Z,7.75
2022-10-25T18:06:25.343Z,4.95
2022-10-25T18:08:57.992Z,6.32
2022-10-25T18:11:28.647Z,5.50
2022-10-25T18:14:05.115Z,5.75
2022-10-25T18:16:33.153Z,5.00
2022-10-25T18:19:01.963Z,5.30
2022-10-25T18:21:29.528Z,5.13
2022-10-25T18:23:59.512Z,4.70
2022-10-25T18:26:26.935Z,4.95
2022-10-25T18:29:00.526Z,5.80
2022-10-25T18:31:27.639Z,5.35
2022-10-25T18:33:59.855Z,5.28
2022-10-25T18:36:27.736Z,6.55
2022-10-25T18:38:55.335Z,6.55
2022-10-25T18:41:28.925Z,6.53
2022-10-25T18:43:56.979Z,6.90
2022-10-25T18:46:29.264Z,8.05
2022-10-25T18:48:58.485Z,7.72
2022-10-25T18:51:28.768Z,8.77
2022-10-25T18:53:57.469Z,9.07
2022-10-25T18:56:25.058Z,8.80
2022-10-25T18:58:52.013Z,9.82
2022-10-25T19:01:24.669Z,8.40
2022-10-25T19:03:51.996Z,9.98
2022-10-25T19:06:19.650Z,8.85
2022-10-25T19:08:47.493Z,9.13
2022-10-25T19:11:16.252Z,8.38
2022-10-25T19:13:47.498Z,9.70
2022-10-25T19:16:24.070Z,9.48
2022-10-25T19:18:51.016Z,10.18
2022-10-25T19:21:18.645Z,10.88
2022-10-25T19:26:22.343Z,11.20
2022-10-25T19:29:00.463Z,11.10
2022-10-25T19:31:29.103Z,10.88
2022-10-25T19:34:02.515Z,11.43
2022-10-25T19:36:30.413Z,13.30
2022-10-25T19:38:58.433Z,13.82
2022-10-25T19:41:25.957Z,14.55
2022-10-25T19:43:55.240Z,13.50
2022-10-25T19:46:23.489Z,14.30
2022-10-25T19:48:53.034Z,15.32
2022-10-25T19:51:21.035Z,14.23
2022-10-25T19:53:48.649Z,15.75
2022-10-25T19:56:21.600Z,14.80
2022-10-25T19:58:49.127Z,14.70
2022-10-25T20:01:21.551Z,16.75
2022-10-25T20:03:50.609Z,21.98
2022-10-25T20:06:24.794Z,24.98
2022-10-25T20:08:52.778Z,22.85
2022-10-25T20:13:47.170Z,20.35
2022-10-25T20:16:15.271Z,21.55
2022-10-25T20:18:45.236Z,17.52
2022-10-25T20:21:24.388Z,18.52
2022-10-25T20:24:01.935Z,14.48
2022-10-25T20:26:41.129Z,14.38
2022-10-25T20:29:20.115Z,16.08
2022-10-25T20:31:48.671Z,16.13
2022-10-25T20:34:15.742Z,17.55
2022-10-25T20:36:42.605Z,16.15
2022-10-25T20:39:11.279Z,16.17
2022-10-25T20:41:37.926Z,18.20
2022-10-25T20:44:05.942Z,18.60
2022-10-25T20:46:37.065Z,17.13
2022-10-25T20:49:04.863Z,17.08
2022-10-25T20:51:33.296Z,20.35
2022-10-25T20:54:00.101Z,21.33
2022-10-25T20:56:27.070Z,18.83
2022-10-25T20:58:57.928Z,19.60
2022-10-25T21:01:25.167Z,17.73
2022-10-25T21:03:54.056Z,17.00
2022-10-25T21:06:20.841Z,19.98
2022-10-25T21:08:47.721Z,18.17
2022-10-25T21:11:14.581Z,19.95
2022-10-25T21:13:41.636Z,18.55
2022-10-25T21:16:10.828Z,18.58
2022-10-25T21:18:39.371Z,19.17
2022-10-25T21:21:09.836Z,17.75
2022-10-25T21:23:36.983Z,18.67
2022-10-25T21:26:07.242Z,17.92
2022-10-25T21:28:42.412Z,16.45
2022-10-25T21:31:12.504Z,16.83
2022-10-25T21:33:40.347Z,16.27
2022-10-25T21:36:12.349Z,15.88
2022-10-25T21:38:39.414Z,15.73
2022-10-25T21:41:10.750Z,14.73
2022-10-25T21:43:51.048Z,13.35
2022-10-25T21:46:19.087Z,12.52
2022-10-25T21:48:50.554Z,12.68
2022-10-25T21:51:20.258Z,13.85
2022-10-25T21:53:47.919Z,12.70
2022-10-25T21:58:48.975Z,13.05
2022-10-25T22:01:18.636Z,13.02
2022-10-25T22:03:45.664Z,13.80
2022-10-25T22:06:18.729Z,12.55
2022-10-25T22:08:47.857Z,11.02
2022-10-25T22:11:17.942Z,11.05
2022-10-25T22:13:47.543Z,11.50
2022-10-25T22:16:16.820Z,11.68
2022-10-25T22:18:47.745Z,12.43
2022-10-25T22:21:14.807Z,10.20
2022-10-25T22:23:41.576Z,10.70
2022-10-25T22:26:13.601Z,10.93
2022-10-25T22:28:41.361Z,8.77
2022-10-25T22:31:18.576Z,9.18
2022-10-25T22:33:46.217Z,9.95
2022-10-25T22:38:41.927Z,9.52
2022-10-25T22:41:12.376Z,9.88
2022-10-25T22:43:39.821Z,8.50
2022-10-25T22:46:10.253Z,9.40
2022-10-25T22:48:38.915Z,10.20
2022-10-25T22:51:06.605Z,11.57
2022-10-25T22:56:12.539Z,12.05
2022-10-25T22:58:41.532Z,12.05
2022-10-25T23:01:11.335Z,10.55
2022-10-25T23:03:40.243Z,10.57
2022-10-25T23:06:14.169Z,10.15
2022-10-25T23:08:41.481Z,14.15
2022-10-25T23:11:16.710Z,10.57
2022-10-25T23:13:43.724Z,19.13
2022-10-25T23:16:11.935Z,41.33
2022-10-25T23:18:40.795Z,31.70
2022-10-25T23:21:13.075Z,19.02
2022-10-25T23:23:39.914Z,19.80
2022-10-25T23:26:09.475Z,25.50
2022-10-25T23:28:36.167Z,30.02
2022-10-25T23:31:05.205Z,27.55
2022-10-25T23:33:32.313Z,22.38
2022-10-25T23:36:10.723Z,24.10
2022-10-25T23:38:37.648Z,24.02
2022-10-25T23:41:05.490Z,25.83
2022-10-25T23:43:32.361Z,20.42
2022-10-25T23:45:59.048Z,20.93
2022-10-25T23:48:26.072Z,20.67
2022-10-25T23:50:58.855Z,19.15
2022-10-25T23:53:27.499Z,17.27
2022-10-25T23:55:55.332Z,13.20
2022-10-25T23:58:23.608Z,11.73
